Time;durP1;ratioP1;P1;durP2;ratioP2;P2;SDS_P1;SDS_P2;PMS_P1;PMS_P2;Temp;Humidity;BMP_temperature;BMP_pressure;BME280_temperature;BME280_humidity;BME280_pressure;Samples;Min_cycle;Max_cycle;Signal;HPM_P1;HPM_P2
2021/01/12 00:00:51;;;;;;;40.25;21.93;;;;;;;-0.53;75.53;100089.55;1725627;82;21157;-59
2021/01/12 00:03:19;;;;;;;34.35;19.35;;;;;;;-0.54;75.48;100102.63;1726805;82;21205;-58
2021/01/12 00:05:47;;;;;;;49.38;26.95;;;;;;;-0.58;75.34;100097.84;1728041;82;21145;-57
2021/01/12 00:08:15;;;;;;;51.10;27.93;;;;;;;-0.61;75.38;100101.73;1727172;82;21161;-57
2021/01/12 00:10:45;;;;;;;43.90;25.62;;;;;;;-0.65;75.63;100092.94;1728019;82;21211;-57
2021/01/12 00:13:13;;;;;;;41.80;23.65;;;;;;;-0.63;75.80;100098.41;1724352;83;21226;-58
2021/01/12 00:15:41;;;;;;;40.25;23.10;;;;;;;-0.62;75.92;100098.73;1727344;82;21150;-58
2021/01/12 00:18:09;;;;;;;41.25;23.18;;;;;;;-0.60;75.71;100105.20;1725824;82;21165;-58
2021/01/12 00:20:38;;;;;;;41.25;22.58;;;;;;;-0.62;75.82;100104.58;1727251;83;21168;-58
2021/01/12 00:23:07;;;;;;;37.55;22.55;;;;;;;-0.58;75.79;100100.52;1728616;83;21130;-58
2021/01/12 00:25:35;;;;;;;37.48;23.35;;;;;;;-0.64;75.70;100100.75;1725991;82;21114;-57
2021/01/12 00:28:03;;;;;;;36.03;23.47;;;;;;;-0.62;75.63;100106.75;1733424;82;21142;-58
2021/01/12 00:30:32;;;;;;;42.13;23.25;;;;;;;-0.61;75.78;100099.56;1722013;82;21542;-57
2021/01/12 00:33:00;;;;;;;41.95;24.30;;;;;;;-0.61;75.88;100104.41;1715467;82;21181;-58
2021/01/12 00:35:28;;;;;;;46.92;26.90;;;;;;;-0.59;75.67;100106.36;1745632;81;21153;-58
2021/01/12 00:37:56;;;;;;;42.03;24.37;;;;;;;-0.63;75.76;100104.25;1744555;82;21284;-58
2021/01/12 00:40:24;;;;;;;43.48;26.48;;;;;;;-0.59;75.89;100104.20;1744701;82;21649;-57
2021/01/12 00:42:52;;;;;;;45.85;26.97;;;;;;;-0.61;75.82;100103.06;1745103;81;21154;-58
2021/01/12 00:45:20;;;;;;;43.33;25.08;;;;;;;-0.61;75.82;100107.58;1743985;81;21299;-58
2021/01/12 00:47:49;;;;;;;41.85;24.82;;;;;;;-0.61;75.86;100100.90;1743933;82;21138;-58
2021/01/12 00:50:17;;;;;;;38.35;21.25;;;;;;;-0.62;75.95;100103.24;1743791;82;21150;-58
2021/01/12 00:52:45;;;;;;;43.28;25.75;;;;;;;-0.60;76.05;100097.19;1757023;81;21302;-59
2021/01/12 00:55:13;;;;;;;40.58;23.80;;;;;;;-0.65;76.15;100096.44;1705698;84;21199;-57
2021/01/12 00:57:43;;;;;;;36.93;21.70;;;;;;;-0.62;76.22;100096.56;1774491;81;21138;-57
2021/01/12 01:00:14;;;;;;;42.93;23.35;;;;;;;-0.61;76.30;100092.88;1706067;84;21166;-57
2021/01/12 01:02:42;;;;;;;42.35;25.17;;;;;;;-0.65;76.17;100096.44;1673199;84;21196;-58
2021/01/12 01:05:12;;;;;;;48.00;28.25;;;;;;;-0.67;75.60;100094.45;1744494;81;21295;-58
2021/01/12 01:07:40;;;;;;;45.63;25.35;;;;;;;-0.69;75.39;100092.99;1741489;82;21728;-57
2021/01/12 01:10:10;;;;;;;50.43;29.75;;;;;;;-0.70;75.35;100092.66;1743988;81;21158;-58
2021/01/12 01:12:38;;;;;;;46.42;25.92;;;;;;;-0.68;75.23;100093.32;1734184;81;21720;-57
2021/01/12 01:15:07;;;;;;;42.78;24.43;;;;;;;-0.68;75.33;100086.64;1706374;84;21181;-57
2021/01/12 01:17:36;;;;;;;54.88;31.57;;;;;;;-0.59;75.17;100089.48;1690158;84;21185;-58
2021/01/12 01:20:06;;;;;;;48.85;29.23;;;;;;;-0.57;75.02;100090.94;1689329;83;21328;-58
2021/01/12 01:22:34;;;;;;;47.85;28.55;;;;;;;-0.59;75.03;100088.98;1676277;83;21332;-57
2021/01/12 01:25:03;;;;;;;53.98;30.35;;;;;;;-0.58;75.21;100087.97;1745431;81;21118;-57
2021/01/12 01:27:34;;;;;;;44.75;26.50;;;;;;;-0.57;75.22;100092.81;1725925;81;21310;-58
2021/01/12 01:30:04;;;;;;;46.33;26.68;;;;;;;-0.59;75.19;100091.66;1743925;82;21146;-58
2021/01/12 01:32:31;;;;;;;42.43;26.00;;;;;;;-0.63;75.23;100086.88;1743925;81;21608;-58
2021/01/12 01:34:59;;;;;;;44.25;24.50;;;;;;;-0.59;75.16;100097.52;1755061;81;21296;-58
2021/01/12 01:37:28;;;;;;;44.48;25.68;;;;;;;-0.63;75.47;100093.05;1747056;81;21781;-58
2021/01/12 01:39:56;;;;;;;43.52;25.65;;;;;;;-0.57;75.54;100085.59;1717613;82;21133;-58
2021/01/12 01:42:24;;;;;;;46.65;27.98;;;;;;;-0.55;75.48;100094.27;1746265;81;21343;-57
2021/01/12 01:44:52;;;;;;;52.13;30.17;;;;;;;-0.51;75.26;100088.86;1741588;81;21561;-58
2021/01/12 01:47:21;;;;;;;45.70;27.20;;;;;;;-0.54;75.19;100086.58;1744521;81;21334;-57
2021/01/12 01:49:49;;;;;;;50.58;28.17;;;;;;;-0.53;74.95;100088.21;1744810;81;21291;-57
2021/01/12 01:52:17;;;;;;;45.90;25.92;;;;;;;-0.56;74.98;100087.77;1744048;81;21761;-58
2021/01/12 01:54:46;;;;;;;48.40;27.37;;;;;;;-0.56;74.88;100086.42;1752478;81;21585;-57
2021/01/12 01:57:14;;;;;;;45.20;25.45;;;;;;;-0.58;74.96;100081.29;1743755;82;21158;-57
2021/01/12 01:59:43;;;;;;;47.90;26.73;;;;;;;-0.60;74.90;100078.47;1743734;82;21173;-58
2021/01/12 02:02:11;;;;;;;44.25;25.23;;;;;;;-0.63;74.94;100078.34;1743597;82;21170;-57
2021/01/12 02:04:40;;;;;;;44.15;26.60;;;;;;;-0.66;75.00;100080.07;1743653;82;21150;-58
2021/01/12 02:07:09;;;;;;;47.73;27.22;;;;;;;-0.69;75.12;100068.93;1744063;81;21197;-57
2021/01/12 02:09:47;;;;;;;41.48;25.40;;;;;;;-0.70;75.08;100074.78;1743973;81;21161;-58
2021/01/12 02:12:23;;;;;;;42.40;25.50;;;;;;;-0.70;75.07;100070.77;1743816;82;21262;-57
2021/01/12 02:14:51;;;;;;;42.83;25.25;;;;;;;-0.73;75.10;100062.31;1744207;81;21776;-58
2021/01/12 02:17:20;;;;;;;35.20;21.10;;;;;;;-0.86;75.01;100037.63;1749722;81;21322;-58
2021/01/12 02:19:51;;;;;;;26.82;17.75;;;;;;;-0.62;74.57;100061.80;1744079;81;21146;-57
2021/01/12 02:22:20;;;;;;;30.43;18.85;;;;;;;-0.62;73.26;100062.63;1763526;81;21383;-57
2021/01/12 02:24:48;;;;;;;34.30;19.98;;;;;;;-0.60;72.91;100057.91;1753165;81;21158;-58
2021/01/12 02:27:23;;;;;;;35.25;20.23;;;;;;;-0.61;72.95;100052.77;1744445;81;21338;-58
2021/01/12 02:29:51;;;;;;;36.30;21.42;;;;;;;-0.62;73.02;100051.94;1754231;81;21692;-58
2021/01/12 02:32:20;;;;;;;36.40;20.70;;;;;;;-0.61;72.92;100041.57;1705764;83;21224;-58
2021/01/12 02:34:48;;;;;;;30.68;18.62;;;;;;;-0.63;72.93;100044.92;1689491;83;21874;-56
2021/01/12 02:37:17;;;;;;;30.62;19.37;;;;;;;-0.66;72.41;100042.64;1741025;81;21147;-57
2021/01/12 02:39:45;;;;;;;30.32;20.27;;;;;;;-0.62;72.16;100040.41;1743004;81;21313;-57
2021/01/12 02:42:16;;;;;;;31.02;18.40;;;;;;;-0.60;72.09;100043.20;1719744;82;21153;-58
2021/01/12 02:44:45;;;;;;;34.33;20.60;;;;;;;-0.59;72.08;100044.03;1756014;81;21312;-58
2021/01/12 02:47:13;;;;;;;31.70;19.77;;;;;;;-0.78;72.20;99996.04;1687388;84;21170;-57
2021/01/12 02:49:43;;;;;;;33.78;20.45;;;;;;;-0.55;72.13;100034.10;1680367;84;21147;-57
2021/01/12 02:52:14;;;;;;;31.15;20.10;;;;;;;-0.51;71.85;100027.35;1743374;81;21185;-57
2021/01/12 02:54:42;;;;;;;31.85;18.82;;;;;;;-0.46;71.73;100025.41;1746784;81;21166;-57
2021/01/12 02:57:10;;;;;;;32.73;19.82;;;;;;;-0.46;71.16;100029.42;1682484;84;21774;-57
2021/01/12 02:59:40;;;;;;;31.37;19.60;;;;;;;-0.71;71.10;99983.56;1741266;82;21121;-58
2021/01/12 03:02:08;;;;;;;29.25;18.10;;;;;;;-0.50;71.31;100021.50;1746579;81;21585;-57
2021/01/12 03:04:36;;;;;;;29.60;18.40;;;;;;;-0.50;71.16;100014.81;1742601;81;21280;-58
2021/01/12 03:07:04;;;;;;;30.65;19.20;;;;;;;-0.55;71.07;100016.72;1743479;81;21176;-58
2021/01/12 03:09:33;;;;;;;31.85;18.70;;;;;;;-0.51;70.70;100014.48;1742037;81;21146;-58
2021/01/12 03:12:01;;;;;;;32.45;19.82;;;;;;;-0.48;70.62;100015.44;1743183;82;21361;-58
2021/01/12 03:14:29;;;;;;;32.63;19.42;;;;;;;-0.48;70.84;100013.27;1743114;81;21631;-58
2021/01/12 03:16:59;;;;;;;30.40;19.57;;;;;;;-0.45;70.47;100010.20;1742704;82;21165;-57
2021/01/12 03:19:27;;;;;;;30.37;18.75;;;;;;;-0.48;70.62;100014.60;1741822;82;21154;-58
2021/01/12 03:21:55;;;;;;;36.42;21.15;;;;;;;-0.44;70.86;100016.70;1743121;81;21166;-58
2021/01/12 03:24:23;;;;;;;33.83;21.33;;;;;;;-0.38;70.74;100017.25;1742424;81;21497;-58
2021/01/12 03:26:51;;;;;;;36.10;20.62;;;;;;;-0.41;70.75;100010.13;1743022;81;21182;-58
2021/01/12 03:29:20;;;;;;;34.73;21.12;;;;;;;-0.41;70.69;100011.47;1742209;81;21320;-57
2021/01/12 03:31:48;;;;;;;31.10;18.87;;;;;;;-0.48;70.88;100006.58;1740648;82;21185;-57
2021/01/12 03:34:16;;;;;;;27.75;17.98;;;;;;;-0.47;70.79;100000.22;1750096;82;21117;-58
2021/01/12 03:36:44;;;;;;;30.12;18.70;;;;;;;-0.48;70.73;99998.55;1745103;81;21158;-58
2021/01/12 03:39:12;;;;;;;28.38;17.92;;;;;;;-0.52;70.42;99989.59;1744030;82;21288;-57
2021/01/12 03:41:41;;;;;;;26.23;17.20;;;;;;;-0.52;70.37;99992.77;1743182;81;21161;-58
2021/01/12 03:44:09;;;;;;;24.80;16.27;;;;;;;-0.56;70.26;99986.98;1737897;81;21150;-58
2021/01/12 03:46:37;;;;;;;27.45;16.32;;;;;;;-0.53;70.10;99981.24;1756873;81;21246;-58
2021/01/12 03:49:06;;;;;;;22.70;14.25;;;;;;;-0.50;70.23;99968.81;1751993;81;21929;-58
2021/01/12 03:51:35;;;;;;;26.23;16.32;;;;;;;-0.50;69.87;99973.36;1744410;81;21292;-57
2021/01/12 03:54:04;;;;;;;26.93;16.12;;;;;;;-0.51;69.93;99977.87;1758670;81;21186;-58
2021/01/12 03:56:32;;;;;;;26.25;15.65;;;;;;;-0.53;69.90;99977.73;1686929;85;21327;-58
2021/01/12 03:59:00;;;;;;;23.98;15.95;;;;;;;-0.51;70.00;99974.38;1749165;81;21170;-58
2021/01/12 04:01:28;;;;;;;26.70;17.42;;;;;;;-0.51;70.26;99977.05;1729448;82;21157;-57
2021/01/12 04:03:56;;;;;;;25.05;16.32;;;;;;;-0.52;70.68;99970.87;1741785;81;21339;-59
2021/01/12 04:06:25;;;;;;;29.75;17.45;;;;;;;-0.48;70.89;99972.64;1754926;81;21835;-58
2021/01/12 04:08:55;;;;;;;29.37;18.30;;;;;;;-0.47;71.19;99965.45;1739408;82;21339;-59
2021/01/12 04:11:23;;;;;;;27.58;18.15;;;;;;;-0.49;71.51;99969.64;1758804;81;21187;-58
2021/01/12 04:13:51;;;;;;;27.62;17.90;;;;;;;-0.49;71.78;99970.98;1766836;81;21687;-58
2021/01/12 04:16:19;;;;;;;28.05;18.37;;;;;;;-0.48;71.91;99964.62;1756372;81;21153;-58
2021/01/12 04:18:47;;;;;;;28.20;18.87;;;;;;;-0.48;71.99;99960.61;1735079;81;21312;-58
2021/01/12 04:21:15;;;;;;;29.77;18.80;;;;;;;-0.46;72.21;99961.22;1748231;81;21154;-57
2021/01/12 04:23:44;;;;;;;31.10;18.55;;;;;;;-0.45;72.12;99964.22;1752803;81;21586;-58
2021/01/12 04:26:12;;;;;;;29.98;19.02;;;;;;;-0.42;72.24;99959.81;1754813;81;21165;-57
2021/01/12 04:28:40;;;;;;;31.10;20.50;;;;;;;-0.40;72.43;99952.95;1748106;81;21660;-58
2021/01/12 04:31:08;;;;;;;29.55;19.70;;;;;;;-0.40;72.60;99952.95;1762153;81;21122;-58
2021/01/12 04:33:36;;;;;;;31.90;20.25;;;;;;;-0.41;72.73;99957.97;1748128;81;21158;-57
2021/01/12 04:36:06;;;;;;;31.90;20.12;;;;;;;-0.43;72.82;99956.02;1769441;80;21185;-57
2021/01/12 04:38:35;;;;;;;31.73;20.88;;;;;;;-0.41;73.13;99963.33;1698661;84;21330;-58
2021/01/12 04:41:03;;;;;;;33.50;20.90;;;;;;;-0.41;73.42;99960.14;1687837;85;21179;-58
2021/01/12 04:43:31;;;;;;;31.75;19.62;;;;;;;-0.46;73.67;99959.09;1748652;82;21166;-58
2021/01/12 04:46:01;;;;;;;31.35;20.50;;;;;;;-0.46;73.73;99961.22;1749389;80;21773;-58
2021/01/12 04:48:30;;;;;;;33.33;21.33;;;;;;;-0.50;74.04;99963.46;1668814;84;21177;-60
2021/01/12 04:51:09;;;;;;;37.17;21.48;;;;;;;-0.50;74.31;99961.33;1753701;80;21189;-58
2021/01/12 04:53:46;;;;;;;35.88;23.30;;;;;;;-0.53;74.61;99953.16;1685956;84;21142;-58
2021/01/12 04:56:20;;;;;;;33.65;22.65;;;;;;;-0.51;74.71;99944.95;1748795;82;21629;-58
2021/01/12 04:58:51;;;;;;;38.08;23.10;;;;;;;-0.51;75.09;99943.62;1753509;80;21288;-58
2021/01/12 05:01:21;;;;;;;33.63;21.75;;;;;;;-0.51;75.24;99937.77;1758854;80;21155;-57
2021/01/12 05:03:53;;;;;;;36.75;22.95;;;;;;;-0.52;75.45;99933.94;1749287;80;21303;-58
2021/01/12 05:06:25;;;;;;;37.23;22.77;;;;;;;-0.51;75.62;99939.10;1748794;80;21122;-58
2021/01/12 05:08:55;;;;;;;36.88;23.92;;;;;;;-0.54;75.97;99935.99;1749145;80;21559;-57
2021/01/12 05:11:32;;;;;;;38.05;24.00;;;;;;;-0.57;76.28;99948.42;1749993;80;21169;-58
2021/01/12 05:14:07;;;;;;;37.93;23.20;;;;;;;-0.63;76.76;99937.97;1763193;80;21308;-58
2021/01/12 05:16:50;;;;;;;38.65;23.40;;;;;;;-0.60;76.77;99944.77;1748825;82;21598;-57
2021/01/12 05:19:30;;;;;;;41.18;25.10;;;;;;;-0.61;77.04;99945.31;1748903;82;21140;-57
2021/01/12 05:21:59;;;;;;;40.60;25.00;;;;;;;-0.65;77.39;99941.37;1748842;82;21332;-58
2021/01/12 05:24:27;;;;;;;36.65;24.27;;;;;;;-0.63;77.33;99946.50;1749319;80;21155;-58
2021/01/12 05:27:06;;;;;;;43.02;26.42;;;;;;;-0.66;77.52;99950.91;1748649;82;21287;-58
2021/01/12 05:29:36;;;;;;;42.55;26.62;;;;;;;-0.64;77.67;99948.34;1749249;80;21214;-58
2021/01/12 05:32:08;;;;;;;39.20;25.37;;;;;;;-0.65;77.67;99940.53;1748805;81;21303;-58
2021/01/12 05:34:38;;;;;;;38.17;25.02;;;;;;;-0.65;77.81;99937.36;1750531;80;21615;-58
2021/01/12 05:37:07;;;;;;;38.98;24.57;;;;;;;-0.64;77.86;99940.33;1749243;80;21161;-58
2021/01/12 05:39:41;;;;;;;37.65;24.77;;;;;;;-0.62;77.89;99941.48;1748556;82;21211;-57
2021/01/12 05:42:10;;;;;;;40.75;26.33;;;;;;;-0.60;77.99;99940.76;1749282;80;21146;-58
2021/01/12 05:44:40;;;;;;;41.55;25.80;;;;;;;-0.62;78.08;99944.98;1749835;80;21165;-58
2021/01/12 05:47:15;;;;;;;41.35;26.35;;;;;;;-0.56;78.02;99938.84;1748725;82;21151;-58
2021/01/12 05:49:44;;;;;;;41.98;24.20;;;;;;;-0.54;78.03;99942.17;1748949;80;21158;-57
2021/01/12 05:52:12;;;;;;;38.10;24.00;;;;;;;-0.60;78.22;99942.93;1748528;80;21157;-58
2021/01/12 05:54:42;;;;;;;41.10;26.55;;;;;;;-0.60;78.25;99942.93;1715102;82;21185;-58
2021/01/12 05:57:10;;;;;;;40.35;25.80;;;;;;;-0.63;78.48;99946.00;1749243;80;21288;-58
2021/01/12 05:59:38;;;;;;;40.48;25.60;;;;;;;-0.61;78.43;99945.31;1709073;83;21162;-58
2021/01/12 06:02:10;;;;;;;39.60;24.75;;;;;;;-0.60;78.45;99941.59;1704761;83;21180;-58
2021/01/12 06:04:38;;;;;;;44.08;27.37;;;;;;;-0.59;78.53;99949.11;1706659;84;21304;-58
2021/01/12 06:07:07;;;;;;;38.88;25.50;;;;;;;-0.57;78.43;99950.55;1755627;80;21169;-58
2021/01/12 06:09:35;;;;;;;41.33;26.37;;;;;;;-0.59;78.57;99953.95;1724001;82;21697;-57
2021/01/12 06:12:04;;;;;;;44.80;27.02;;;;;;;-0.58;78.49;99952.94;1753022;80;21335;-58
2021/01/12 06:14:33;;;;;;;43.23;27.52;;;;;;;-0.60;78.54;99952.28;1732218;80;21314;-58
2021/01/12 06:17:01;;;;;;;41.30;26.27;;;;;;;-0.59;78.54;99953.12;1706667;83;21732;-58
2021/01/12 06:19:29;;;;;;;42.95;27.80;;;;;;;-0.65;78.58;99956.07;1711410;83;21328;-58
2021/01/12 06:22:04;;;;;;;44.03;27.13;;;;;;;-0.61;78.62;99957.84;1748461;82;21291;-59
2021/01/12 06:24:41;;;;;;;40.67;26.55;;;;;;;-0.64;78.72;99951.55;1749188;80;21191;-58
2021/01/12 06:27:17;;;;;;;40.23;26.05;;;;;;;-0.58;78.59;99949.43;1748613;82;21294;-58
2021/01/12 06:29:47;;;;;;;37.58;23.90;;;;;;;-0.56;78.55;99948.72;1749503;80;21603;-57
2021/01/12 06:32:22;;;;;;;39.75;25.75;;;;;;;-0.60;78.53;99951.45;1748564;82;21340;-58
2021/01/12 06:34:51;;;;;;;42.30;27.02;;;;;;;-0.59;78.51;99957.95;1745039;81;21190;-58
2021/01/12 06:37:20;;;;;;;42.08;27.17;;;;;;;-0.63;78.65;99954.02;1743675;81;21183;-58
2021/01/12 06:39:55;;;;;;;39.53;25.60;;;;;;;-0.59;78.49;99949.94;1766485;81;21291;-57
2021/01/12 06:42:27;;;;;;;40.95;26.87;;;;;;;-0.57;78.37;99951.89;1743493;81;21161;-57
2021/01/12 06:44:57;;;;;;;40.95;26.07;;;;;;;-0.59;78.40;99946.44;1740453;82;21165;-58
2021/01/12 06:47:27;;;;;;;38.60;26.23;;;;;;;-0.57;78.47;99951.89;1741052;82;21161;-57
2021/01/12 06:50:08;;;;;;;41.73;25.77;;;;;;;-0.54;78.39;99945.35;1763335;81;21308;-57
2021/01/12 06:52:47;;;;;;;41.23;25.20;;;;;;;-0.57;78.55;99931.84;1759393;81;21178;-57
2021/01/12 06:55:18;;;;;;;43.13;27.52;;;;;;;-0.48;78.36;99937.05;1740953;82;21215;-58
2021/01/12 06:57:49;;;;;;;39.40;24.57;;;;;;;-0.56;78.64;99936.17;1740636;82;21152;-57
2021/01/12 07:00:19;;;;;;;37.63;24.60;;;;;;;-0.59;78.64;99929.05;1762398;81;21118;-57
2021/01/12 07:03:02;;;;;;;39.05;25.35;;;;;;;-0.62;78.59;99932.13;1746306;81;21297;-57
2021/01/12 07:05:42;;;;;;;38.23;24.43;;;;;;;-0.62;78.69;99924.93;1741063;82;21185;-57
2021/01/12 07:08:11;;;;;;;39.13;23.80;;;;;;;-0.66;78.63;99927.67;1740951;82;21597;-57
2021/01/12 07:10:46;;;;;;;38.25;24.80;;;;;;;-0.66;78.52;99920.98;1740937;81;21353;-57
2021/01/12 07:13:14;;;;;;;38.78;24.75;;;;;;;-0.64;78.54;99933.64;1740612;82;21340;-57
2021/01/12 07:15:48;;;;;;;34.45;22.95;;;;;;;-0.67;78.58;99926.52;1740592;82;21337;-56
2021/01/12 07:18:22;;;;;;;38.23;25.10;;;;;;;-0.67;78.21;99923.34;1745120;81;21288;-57
2021/01/12 07:20:50;;;;;;;39.25;22.70;;;;;;;-0.61;77.93;99921.24;1752444;81;21158;-57
2021/01/12 07:23:20;;;;;;;33.25;21.95;;;;;;;-0.67;77.32;99920.67;1755122;81;21141;-57
2021/01/12 07:25:48;;;;;;;34.03;23.20;;;;;;;-0.67;77.41;99917.16;1744276;82;21280;-57
2021/01/12 07:28:22;;;;;;;31.52;19.85;;;;;;;-0.67;77.46;99916.66;1744648;81;21158;-57
2021/01/12 07:30:52;;;;;;;28.12;18.75;;;;;;;-0.70;76.53;99915.71;1771094;81;21178;-58
2021/01/12 07:33:23;;;;;;;30.40;19.55;;;;;;;-0.70;76.41;99909.03;1766631;81;21622;-58
2021/01/12 07:35:53;;;;;;;25.72;16.95;;;;;;;-0.77;75.80;99916.68;1741739;82;21871;-58
2021/01/12 07:38:23;;;;;;;26.35;16.40;;;;;;;-0.75;75.75;99916.83;1743093;82;21467;-58
2021/01/12 07:40:56;;;;;;;24.80;16.75;;;;;;;-0.76;75.56;99910.32;1679341;85;21224;-57
2021/01/12 07:43:24;;;;;;;25.75;17.48;;;;;;;-0.76;74.97;99917.00;1699728;83;21304;-57
2021/01/12 07:45:54;;;;;;;28.67;17.90;;;;;;;-0.77;74.66;99913.50;1750696;80;21168;-57
2021/01/12 07:48:22;;;;;;;22.98;14.50;;;;;;;-0.75;74.58;99919.50;1771684;80;21153;-58
2021/01/12 07:50:52;;;;;;;24.98;16.30;;;;;;;-0.75;74.19;99914.66;1769743;80;21167;-57
2021/01/12 07:53:20;;;;;;;24.75;15.85;;;;;;;-0.74;74.00;99907.77;1749218;80;21273;-58
2021/01/12 07:55:48;;;;;;;24.18;15.85;;;;;;;-0.74;73.69;99905.09;1748490;82;21207;-57
2021/01/12 07:58:18;;;;;;;24.30;15.05;;;;;;;-0.75;73.58;99895.95;1749076;81;21162;-58
2021/01/12 08:00:48;;;;;;;20.70;13.40;;;;;;;-0.75;73.18;99892.77;1749594;80;21197;-58
2021/01/12 08:03:27;;;;;;;23.67;15.48;;;;;;;-0.77;73.04;99888.61;1744633;82;21739;-57
2021/01/12 08:05:59;;;;;;;22.90;14.18;;;;;;;-0.78;73.26;99889.13;1744532;81;21176;-58
2021/01/12 08:08:27;;;;;;;22.42;14.63;;;;;;;-0.72;73.18;99891.55;1748595;82;21161;-57
2021/01/12 08:10:56;;;;;;;21.87;13.32;;;;;;;-0.71;73.03;99894.54;1748393;80;21131;-57
2021/01/12 08:13:24;;;;;;;20.82;14.15;;;;;;;-0.76;72.54;99890.27;1754385;80;21169;-57
2021/01/12 08:15:52;;;;;;;23.10;14.45;;;;;;;-0.71;72.55;99897.21;1760429;80;21184;-56
2021/01/12 08:18:21;;;;;;;23.27;14.43;;;;;;;-0.72;72.19;99891.55;1763488;80;21122;-57
2021/01/12 08:20:56;;;;;;;25.43;15.93;;;;;;;-0.67;72.45;99890.42;1690958;83;21320;-57
2021/01/12 08:23:24;;;;;;;27.05;17.70;;;;;;;-0.62;73.05;99897.36;1752119;80;21170;-57
2021/01/12 08:25:52;;;;;;;25.10;15.65;;;;;;;-0.65;73.08;99892.41;1748721;82;21316;-57
2021/01/12 08:28:20;;;;;;;24.87;15.93;;;;;;;-0.59;73.58;99903.66;1749452;80;21292;-57
2021/01/12 08:30:49;;;;;;;28.23;17.73;;;;;;;-0.62;73.61;99902.71;1764918;80;21304;-56
2021/01/12 08:33:27;;;;;;;20.50;14.05;;;;;;;-0.53;73.74;99907.70;1719584;82;21182;-56
2021/01/12 08:36:03;;;;;;;25.35;16.67;;;;;;;-0.50;73.59;99901.16;1721839;82;21319;-57
2021/01/12 08:38:31;;;;;;;23.42;15.45;;;;;;;-0.48;73.27;99900.44;1754625;82;21181;-58
2021/01/12 08:41:00;;;;;;;25.77;16.32;;;;;;;-0.48;73.33;99904.45;1737380;82;21187;-57
2021/01/12 08:43:29;;;;;;;21.55;14.87;;;;;;;-0.52;72.98;99900.51;1720563;81;21131;-58
2021/01/12 08:46:03;;;;;;;24.32;15.75;;;;;;;-0.57;72.68;99895.73;1754322;82;21286;-56
2021/01/12 08:48:31;;;;;;;23.52;14.85;;;;;;;-0.53;72.99;99905.03;1749171;82;21803;-57
2021/01/12 08:51:01;;;;;;;23.47;14.90;;;;;;;-0.58;71.66;99893.28;1717954;82;21218;-57
2021/01/12 08:53:37;;;;;;;22.58;15.08;;;;;;;-0.59;71.88;99897.80;1743251;82;21134;-58
2021/01/12 08:56:07;;;;;;;21.57;14.78;;;;;;;-0.53;72.03;99890.83;1721575;83;21264;-56
2021/01/12 08:58:35;;;;;;;20.08;12.80;;;;;;;-0.54;70.99;99887.35;1723936;81;21319;-57
2021/01/12 09:01:06;;;;;;;22.42;14.68;;;;;;;-0.53;71.05;99886.81;1721607;82;21169;-59
2021/01/12 09:03:41;;;;;;;22.42;14.45;;;;;;;-0.52;71.39;99883.12;1746717;82;21146;-57
2021/01/12 09:06:05;;;;;;;22.30;14.65;;;;;;;-0.52;71.78;99884.46;1750010;81;21309;-57
2021/01/12 09:08:33;;;;;;;22.13;14.63;;;;;;;-0.52;71.93;99882.62;1736782;82;21150;-57
2021/01/12 09:11:05;;;;;;;23.38;15.75;;;;;;;-0.53;72.13;99880.96;1751471;82;21322;-56
2021/01/12 09:13:34;;;;;;;22.37;15.15;;;;;;;-0.56;72.33;99877.85;1751278;82;21317;-57
2021/01/12 09:16:08;;;;;;;22.50;14.85;;;;;;;-0.56;72.09;99877.34;1751384;81;21333;-57
2021/01/12 09:18:38;;;;;;;22.87;15.05;;;;;;;-0.64;72.11;99872.69;1713255;83;21884;-56
2021/01/12 09:21:07;;;;;;;23.35;15.65;;;;;;;-0.65;71.92;99865.67;1721521;82;21174;-57
2021/01/12 09:23:37;;;;;;;22.42;14.55;;;;;;;-0.69;72.30;99867.91;1721450;83;21624;-56
2021/01/12 09:26:05;;;;;;;25.92;16.50;;;;;;;-0.68;72.33;99866.07;1721426;82;21292;-57
2021/01/12 09:28:38;;;;;;;23.85;15.93;;;;;;;-0.65;72.63;99873.19;1750805;82;21212;-58
2021/01/12 09:31:16;;;;;;;20.95;14.50;;;;;;;-0.58;72.38;99867.88;1751548;82;22072;-58
2021/01/12 09:33:48;;;;;;;18.67;12.73;;;;;;;-0.52;72.24;99861.73;1751413;82;21301;-57
2021/01/12 09:36:17;;;;;;;23.47;15.25;;;;;;;-0.56;71.45;99855.95;1746714;82;21278;-57
2021/01/12 09:38:52;;;;;;;20.17;12.98;;;;;;;-0.57;71.77;99850.28;1740137;82;21268;-58
2021/01/12 09:41:24;;;;;;;22.98;13.35;;;;;;;-0.55;71.64;99844.24;1748718;82;21711;-57
2021/01/12 09:43:52;;;;;;;21.60;14.05;;;;;;;-0.62;71.90;99842.05;1748456;82;21145;-57
2021/01/12 09:46:20;;;;;;;23.27;14.93;;;;;;;-0.65;72.40;99838.44;1733102;82;21626;-58
2021/01/12 09:48:48;;;;;;;22.42;14.65;;;;;;;-0.69;72.74;99830.48;1724084;82;21786;-57
2021/01/12 09:51:17;;;;;;;20.60;14.20;;;;;;;-0.74;73.05;99823.55;1732105;82;21106;-57
2021/01/12 09:53:51;;;;;;;19.55;13.32;;;;;;;-0.74;72.82;99815.53;1746766;82;21663;-57
2021/01/12 09:56:20;;;;;;;23.98;15.40;;;;;;;-0.78;72.69;99814.81;1726637;82;21287;-58
2021/01/12 09:58:51;;;;;;;25.00;15.75;;;;;;;-0.79;73.13;99803.30;1743228;82;21160;-58
2021/01/12 10:01:20;;;;;;;21.48;14.25;;;;;;;-0.77;72.81;99802.57;1731589;82;21171;-58
2021/01/12 10:03:49;;;;;;;24.10;15.28;;;;;;;-0.83;72.99;99794.52;1735678;82;21290;-58
2021/01/12 10:06:20;;;;;;;22.85;14.40;;;;;;;-0.90;72.81;99790.48;1721428;82;21695;-59
2021/01/12 10:08:49;;;;;;;23.57;14.80;;;;;;;-0.82;73.07;99783.64;1719129;83;21169;-57
2021/01/12 10:11:18;;;;;;;24.07;16.27;;;;;;;-0.83;72.04;99772.63;1721277;80;21334;-58
2021/01/12 10:13:46;;;;;;;21.80;15.15;;;;;;;-0.77;72.20;99775.02;1743003;82;21165;-58
2021/01/12 10:16:25;;;;;;;23.50;15.50;;;;;;;-0.81;72.06;99766.56;1740325;80;21684;-57
2021/01/12 10:18:53;;;;;;;22.17;15.32;;;;;;;-0.77;71.70;99759.80;1726138;82;21283;-57
2021/01/12 10:21:22;;;;;;;22.77;14.68;;;;;;;-0.77;71.33;99746.44;1728161;82;21179;-57
2021/01/12 10:23:51;;;;;;;20.25;13.30;;;;;;;-0.83;71.32;99745.91;1729014;82;21187;-57
2021/01/12 10:26:21;;;;;;;22.25;14.05;;;;;;;-0.78;71.47;99746.11;1730999;82;21145;-58
2021/01/12 10:28:51;;;;;;;21.35;13.60;;;;;;;-0.80;71.50;99745.50;1718779;83;21302;-58
2021/01/12 10:31:20;;;;;;;18.73;11.60;;;;;;;-0.78;71.35;99744.78;1718690;82;21344;-57
2021/01/12 10:33:49;;;;;;;17.42;12.13;;;;;;;-0.80;70.79;99736.66;1730466;82;21105;-58
2021/01/12 10:36:19;;;;;;;19.95;12.50;;;;;;;-0.85;70.44;99730.56;1737057;80;21397;-58
2021/01/12 10:38:47;;;;;;;17.55;11.85;;;;;;;-0.91;70.31;99728.69;1753836;80;21283;-57
2021/01/12 10:43:02;;;;;;;17.90;12.13;;;;;;;-0.90;70.44;99721.50;1813480;77;23018;-57
2021/01/12 10:45:30;;;;;;;22.27;12.43;;;;;;;-0.99;70.24;99719.48;1766474;80;21122;-56
2021/01/12 10:47:59;;;;;;;19.23;13.32;;;;;;;-0.96;70.60;99716.95;1761237;80;21145;-57
2021/01/12 10:50:27;;;;;;;25.25;15.28;;;;;;;-0.93;70.91;99710.70;1721973;83;21290;-58
2021/01/12 10:52:55;;;;;;;20.50;12.65;;;;;;;-0.88;70.86;99706.08;1662212;85;21262;-58
2021/01/12 10:55:23;;;;;;;20.60;12.98;;;;;;;-1.08;70.05;99667.25;1727265;81;21810;-58
2021/01/12 10:57:51;;;;;;;20.02;12.28;;;;;;;-0.88;69.92;99708.75;1686845;83;21305;-58
2021/01/12 11:00:20;;;;;;;20.30;13.08;;;;;;;-0.89;69.66;99704.45;1699905;84;21721;-58
2021/01/12 11:02:53;;;;;;;21.23;12.23;;;;;;;-0.90;69.52;99706.30;1689696;84;21323;-58
2021/01/12 11:05:19;;;;;;;25.50;14.40;;;;;;;-0.85;69.26;99707.84;1690248;83;21307;-57
2021/01/12 11:07:50;;;;;;;22.10;12.25;;;;;;;-0.84;69.42;99710.00;1650003;86;21306;-58
2021/01/12 11:10:18;;;;;;;20.85;12.80;;;;;;;-0.84;68.30;99706.00;1698574;84;21114;-59
2021/01/12 11:12:47;;;;;;;26.02;13.13;;;;;;;-0.85;68.82;99701.16;1743559;81;21316;-58
2021/01/12 11:15:16;;;;;;;19.98;11.18;;;;;;;-0.85;68.97;99702.50;1671272;84;21323;-57
2021/01/12 11:17:47;;;;;;;17.05;11.08;;;;;;;-0.87;68.26;99704.55;1609820;87;21767;-58
2021/01/12 11:20:18;;;;;;;18.65;12.25;;;;;;;-0.85;68.50;99693.14;1679448;82;21327;-58
2021/01/12 11:22:46;;;;;;;21.93;12.43;;;;;;;-0.82;69.03;99702.13;1673652;85;21173;-58
2021/01/12 11:25:14;;;;;;;18.60;11.10;;;;;;;-0.80;68.73;99693.89;1692478;84;21461;-58
2021/01/12 11:27:46;;;;;;;18.70;11.20;;;;;;;-0.83;68.63;99690.28;1687976;84;21298;-58